Terminal Aerodrome Forecast
Issued by NWS

Home | Current Version | Previous Version | Text Only | Print | Product List | Glossary On
Versions: 1 2 3 4 5 6 7 8 9 10 11 12 13
000
FTUS44 KSJT 022300
TAFBBD
TAF
KBBD 022328Z 0300/0324 15009KT P6SM SKC
     FM031100 15008KT P6SM BKN020
     FM031500 16011KT P6SM SCT070=

USA.gov is the U.S. government's official web portal to all federal, state and local government web resources and services.